createdAt,value
2023-05-10T00:00:34.320Z,198.30
2023-05-10T00:01:34.328Z,199.40
2023-05-10T00:02:34.359Z,217.00
2023-05-10T00:03:34.342Z,218.20
2023-05-10T00:04:34.279Z,217.80
2023-05-10T00:05:34.257Z,220.40
2023-05-10T00:06:34.280Z,236.40
2023-05-10T00:07:34.262Z,230.40
2023-05-10T00:08:34.226Z,214.70
2023-05-10T00:09:34.240Z,203.90
2023-05-10T00:10:34.230Z,208.30
2023-05-10T00:11:34.213Z,206.70
2023-05-10T00:12:34.191Z,214.00
2023-05-10T00:13:34.174Z,225.80
2023-05-10T00:14:34.182Z,217.50
2023-05-10T00:15:34.191Z,205.30
2023-05-10T00:16:34.202Z,219.90
2023-05-10T00:17:34.167Z,224.90
2023-05-10T00:18:34.122Z,211.50
2023-05-10T00:19:34.143Z,212.10
2023-05-10T00:20:34.127Z,216.90
2023-05-10T00:21:34.098Z,221.80
2023-05-10T00:22:34.107Z,219.40
2023-05-10T00:23:34.088Z,218.60
2023-05-10T00:24:34.089Z,216.80
2023-05-10T00:25:34.080Z,221.60
2023-05-10T00:26:34.044Z,222.80
2023-05-10T00:27:34.023Z,219.10
2023-05-10T00:28:34.007Z,223.90
2023-05-10T00:29:34.031Z,221.20
2023-05-10T00:30:33.994Z,228.40
2023-05-10T00:31:34.105Z,222.30
2023-05-10T00:32:34.010Z,227.40
2023-05-10T00:33:33.967Z,228.30
2023-05-10T00:34:33.978Z,216.30
2023-05-10T00:35:33.957Z,212.90
2023-05-10T00:36:33.924Z,232.80
2023-05-10T00:37:33.920Z,220.60
2023-05-10T00:38:33.931Z,213.60
2023-05-10T00:39:33.936Z,208.30
2023-05-10T00:40:33.891Z,227.60
2023-05-10T00:41:33.904Z,229.80
2023-05-10T00:42:33.869Z,220.20
2023-05-10T00:43:33.877Z,232.10
2023-05-10T00:44:33.856Z,237.10
2023-05-10T00:45:33.840Z,240.80
2023-05-10T00:46:33.895Z,247.50
2023-05-10T00:47:33.847Z,236.60
2023-05-10T00:48:33.846Z,220.50
2023-05-10T00:49:33.809Z,219.80
2023-05-10T00:50:33.805Z,229.50
2023-05-10T00:51:33.786Z,229.40
2023-05-10T00:52:33.807Z,231.60
2023-05-10T00:53:33.781Z,221.00
2023-05-10T00:54:33.748Z,227.90
2023-05-10T00:55:33.736Z,239.30
2023-05-10T00:56:33.776Z,245.20
2023-05-10T00:57:33.733Z,244.50
2023-05-10T00:58:33.696Z,234.60
2023-05-10T00:59:33.708Z,238.50
2023-05-10T01:00:33.673Z,250.20
2023-05-10T01:01:33.714Z,251.60
2023-05-10T01:02:33.756Z,246.00
2023-05-10T01:03:33.690Z,246.70
2023-05-10T01:04:33.651Z,230.50
2023-05-10T01:05:33.627Z,229.80
2023-05-10T01:06:33.635Z,239.00
2023-05-10T01:07:33.643Z,234.30
2023-05-10T01:08:33.599Z,229.70
2023-05-10T01:09:33.594Z,230.90
2023-05-10T01:10:33.606Z,232.50
2023-05-10T01:11:33.594Z,220.60
2023-05-10T01:12:33.622Z,213.10
2023-05-10T01:13:33.544Z,204.50
2023-05-10T01:14:33.534Z,179.70
2023-05-10T01:15:33.524Z,145.20
2023-05-10T01:16:33.568Z,140.40
2023-05-10T01:17:33.538Z,155.70
2023-05-10T01:18:33.489Z,155.20
2023-05-10T01:19:33.492Z,148.70
2023-05-10T01:20:33.495Z,153.40
2023-05-10T01:21:33.490Z,154.40
2023-05-10T01:22:33.459Z,146.40
2023-05-10T01:23:33.454Z,151.00
2023-05-10T01:24:33.440Z,165.20
2023-05-10T01:25:33.434Z,176.00
2023-05-10T01:26:33.428Z,168.10
2023-05-10T01:27:33.411Z,176.00
2023-05-10T01:28:33.390Z,178.10
2023-05-10T01:29:33.376Z,188.90
2023-05-10T01:30:33.425Z,192.80
2023-05-10T01:31:33.413Z,178.30
2023-05-10T01:32:33.366Z,188.00
2023-05-10T01:33:33.342Z,184.40
2023-05-10T01:34:33.340Z,186.80
2023-05-10T01:35:33.342Z,201.80
2023-05-10T01:36:33.356Z,208.10
2023-05-10T01:37:33.299Z,216.20
2023-05-10T01:38:33.274Z,205.40
2023-05-10T01:39:33.296Z,178.70
2023-05-10T01:40:33.269Z,186.20
2023-05-10T01:41:33.245Z,200.50
2023-05-10T01:42:33.250Z,196.90
2023-05-10T01:43:33.235Z,209.80
2023-05-10T01:44:33.243Z,206.20
2023-05-10T01:45:33.205Z,201.50
2023-05-10T01:46:33.236Z,193.40
2023-05-10T01:47:33.216Z,207.50
2023-05-10T01:48:33.206Z,203.90
2023-05-10T01:49:33.191Z,199.30
2023-05-10T01:50:33.179Z,196.40
2023-05-10T01:51:33.152Z,201.80
2023-05-10T01:52:33.124Z,206.30
2023-05-10T01:53:33.143Z,189.70
2023-05-10T01:54:33.108Z,189.60
2023-05-10T01:55:39.613Z,196.00
2023-05-10T01:56:39.583Z,202.90
2023-05-10T01:57:40.882Z,199.50
2023-05-10T01:58:33.076Z,202.20
2023-05-10T01:59:33.058Z,193.20
2023-05-10T02:00:33.141Z,194.80
2023-05-10T02:01:33.040Z,191.60
2023-05-10T02:02:33.054Z,198.20
2023-05-10T02:03:33.055Z,200.00
2023-05-10T02:04:33.008Z,202.40
2023-05-10T02:05:32.984Z,217.70
2023-05-10T02:06:33.047Z,205.90
2023-05-10T02:07:32.995Z,213.40
2023-05-10T02:08:32.953Z,197.30
2023-05-10T02:09:32.971Z,208.50
2023-05-10T02:10:32.940Z,209.70
2023-05-10T02:11:32.923Z,209.00
2023-05-10T02:12:32.930Z,213.90
2023-05-10T02:13:39.393Z,207.00
2023-05-10T02:14:32.905Z,200.80
2023-05-10T02:15:32.871Z,212.30
2023-05-10T02:16:32.955Z,214.20
2023-05-10T02:17:32.943Z,209.80
2023-05-10T02:18:32.862Z,216.60
2023-05-10T02:19:32.841Z,205.20
2023-05-10T02:20:32.846Z,206.60
2023-05-10T02:21:32.844Z,204.70
2023-05-10T02:22:32.808Z,209.00
2023-05-10T02:23:32.792Z,220.30
2023-05-10T02:24:32.776Z,220.00
2023-05-10T02:25:32.797Z,213.00
2023-05-10T02:26:32.785Z,209.00
2023-05-10T02:27:32.753Z,213.10
2023-05-10T02:28:32.743Z,207.50
2023-05-10T02:29:32.718Z,209.10
2023-05-10T02:30:32.751Z,207.80
2023-05-10T02:31:32.751Z,207.70
2023-05-10T02:32:32.725Z,206.50
2023-05-10T02:33:32.717Z,205.10
2023-05-10T02:34:32.681Z,207.30
2023-05-10T02:35:32.678Z,215.10
2023-05-10T02:36:32.679Z,221.70
2023-05-10T02:37:32.729Z,213.10
2023-05-10T02:38:32.736Z,219.10
2023-05-10T02:39:32.611Z,218.90
2023-05-10T02:40:32.643Z,224.10
2023-05-10T02:41:32.589Z,223.30
2023-05-10T02:42:32.716Z,212.20
2023-05-10T02:43:32.573Z,208.70
2023-05-10T02:44:40.410Z,216.30
2023-05-10T02:45:40.404Z,207.40
2023-05-10T02:46:32.616Z,207.30
2023-05-10T02:47:32.559Z,210.80
2023-05-10T02:48:32.532Z,213.90
2023-05-10T02:49:32.542Z,208.90
2023-05-10T02:50:32.529Z,199.80
2023-05-10T02:51:32.495Z,210.90
2023-05-10T02:52:32.489Z,210.40
2023-05-10T02:53:32.480Z,200.00
2023-05-10T02:54:32.498Z,204.90
2023-05-10T02:55:32.486Z,211.20
2023-05-10T02:56:32.455Z,213.30
2023-05-10T02:57:32.425Z,202.10
2023-05-10T02:58:32.435Z,198.90
2023-05-10T02:59:32.426Z,200.80
2023-05-10T03:00:32.408Z,205.10
2023-05-10T03:01:32.440Z,192.60
2023-05-10T03:02:32.513Z,208.60
2023-05-10T03:03:32.443Z,201.90
2023-05-10T03:04:32.435Z,201.80
2023-05-10T03:05:32.373Z,204.40
2023-05-10T03:06:32.345Z,218.80
2023-05-10T03:07:32.331Z,213.40
2023-05-10T03:08:32.347Z,206.70
2023-05-10T03:09:32.317Z,198.00
2023-05-10T03:10:32.292Z,192.00
2023-05-10T03:11:32.284Z,188.40
2023-05-10T03:12:32.308Z,204.60
2023-05-10T03:13:32.307Z,197.80
2023-05-10T03:14:32.257Z,198.80
2023-05-10T03:15:32.235Z,196.60
2023-05-10T03:16:32.322Z,202.30
2023-05-10T03:17:32.275Z,206.20
2023-05-10T03:18:32.258Z,203.70
2023-05-10T03:19:32.185Z,211.20
2023-05-10T03:20:32.202Z,198.30
2023-05-10T03:21:32.171Z,195.00
2023-05-10T03:22:32.198Z,187.90
2023-05-10T03:23:32.166Z,182.90
2023-05-10T03:24:32.137Z,179.70
2023-05-10T03:25:32.073Z,180.00
2023-05-10T03:26:32.079Z,183.90
2023-05-10T03:27:32.080Z,202.50
2023-05-10T03:28:32.049Z,194.40
2023-05-10T03:29:32.066Z,197.00
2023-05-10T03:30:32.060Z,196.30
2023-05-10T03:31:32.080Z,192.40
2023-05-10T03:32:32.059Z,194.10
2023-05-10T03:33:31.995Z,191.80
2023-05-10T03:34:32.005Z,186.10
2023-05-10T03:35:32.004Z,183.60
2023-05-10T03:36:32.014Z,181.50
2023-05-10T03:37:31.968Z,184.20
2023-05-10T03:38:31.965Z,181.90
2023-05-10T03:39:31.931Z,181.60
2023-05-10T03:40:31.947Z,173.30
2023-05-10T03:41:31.933Z,170.70
2023-05-10T03:42:31.912Z,185.50
2023-05-10T03:43:31.914Z,187.70
2023-05-10T03:44:31.914Z,196.70
2023-05-10T03:45:31.885Z,187.80
2023-05-10T03:46:31.930Z,199.50
2023-05-10T03:47:48.581Z,205.10
2023-05-10T03:48:31.836Z,192.20
2023-05-10T03:49:31.834Z,194.40
2023-05-10T03:50:31.866Z,200.60
2023-05-10T03:51:31.797Z,190.20
2023-05-10T03:52:31.809Z,193.50
2023-05-10T03:53:31.810Z,193.90
2023-05-10T03:54:31.822Z,190.70
2023-05-10T03:55:31.787Z,194.90
2023-05-10T03:56:31.753Z,195.00
2023-05-10T03:57:31.743Z,197.10
2023-05-10T03:58:31.736Z,176.30
2023-05-10T03:59:31.742Z,166.80
2023-05-10T04:00:31.734Z,176.00
2023-05-10T04:01:31.693Z,181.20
2023-05-10T04:02:31.746Z,174.20
2023-05-10T04:03:31.825Z,188.00
2023-05-10T04:04:31.685Z,194.30
2023-05-10T04:05:31.661Z,177.50
2023-05-10T04:06:31.712Z,167.90
2023-05-10T04:07:31.665Z,183.10
2023-05-10T04:08:31.664Z,180.70
2023-05-10T04:09:31.635Z,183.40
2023-05-10T04:10:31.606Z,181.80
2023-05-10T04:11:31.619Z,188.40
2023-05-10T04:12:31.584Z,181.10
2023-05-10T04:13:31.625Z,187.90
2023-05-10T04:14:31.575Z,189.10
2023-05-10T04:15:31.560Z,194.10
2023-05-10T04:16:31.571Z,186.00
2023-05-10T04:17:31.583Z,177.30
2023-05-10T04:18:31.532Z,184.80
2023-05-10T04:19:31.509Z,188.20
2023-05-10T04:20:31.498Z,177.20
2023-05-10T04:21:31.492Z,175.40
2023-05-10T04:22:31.473Z,171.90
2023-05-10T04:23:31.495Z,177.10
2023-05-10T04:24:31.463Z,163.40
2023-05-10T04:25:31.475Z,160.40
2023-05-10T04:26:31.423Z,171.00
2023-05-10T04:27:31.446Z,178.40
2023-05-10T04:28:31.432Z,176.80
2023-05-10T04:29:31.410Z,177.60
2023-05-10T04:30:31.472Z,166.60
2023-05-10T04:31:31.387Z,173.50
2023-05-10T04:32:31.523Z,184.20
2023-05-10T04:33:31.356Z,175.60
2023-05-10T04:34:31.344Z,167.70
2023-05-10T04:35:31.343Z,167.40
2023-05-10T04:36:31.357Z,175.10
2023-05-10T04:37:31.339Z,169.70
2023-05-10T04:38:31.311Z,162.20
2023-05-10T04:39:31.306Z,159.90
2023-05-10T04:40:31.284Z,173.50
2023-05-10T04:41:31.292Z,181.60
2023-05-10T04:42:37.768Z,180.20
2023-05-10T04:43:31.236Z,188.50
2023-05-10T04:44:31.226Z,194.10
2023-05-10T04:45:31.244Z,189.40
2023-05-10T04:46:31.253Z,180.60
2023-05-10T04:47:31.243Z,180.40
2023-05-10T04:48:31.199Z,176.80
2023-05-10T04:49:31.205Z,174.50
2023-05-10T04:50:31.188Z,173.50
2023-05-10T04:51:31.219Z,185.70
2023-05-10T04:52:31.169Z,181.20
2023-05-10T04:53:31.139Z,192.80
2023-05-10T04:54:31.130Z,192.50
2023-05-10T04:55:31.142Z,190.80
2023-05-10T04:56:31.095Z,188.20
2023-05-10T04:57:31.108Z,187.40
2023-05-10T04:58:31.097Z,184.70
2023-05-10T04:59:31.080Z,192.80
2023-05-10T05:00:31.097Z,187.30
2023-05-10T05:01:31.132Z,197.00
2023-05-10T05:02:31.125Z,208.10
2023-05-10T05:03:31.096Z,201.20
2023-05-10T05:04:31.028Z,188.90
2023-05-10T05:05:31.033Z,184.80
2023-05-10T05:06:31.011Z,182.70
2023-05-10T05:07:30.992Z,189.30
2023-05-10T05:08:30.980Z,192.00
2023-05-10T05:09:31.012Z,182.00
2023-05-10T05:10:30.995Z,191.30
2023-05-10T05:11:30.973Z,186.40
2023-05-10T05:12:30.935Z,184.30
2023-05-10T05:13:31.053Z,190.70
2023-05-10T05:14:30.929Z,188.60
2023-05-10T05:15:30.912Z,196.60
2023-05-10T05:16:30.974Z,192.10
2023-05-10T05:17:30.941Z,179.00
2023-05-10T05:18:30.892Z,179.30
2023-05-10T05:19:30.903Z,182.00
2023-05-10T05:20:30.846Z,186.10
2023-05-10T05:21:30.842Z,177.90
2023-05-10T05:22:30.845Z,178.00
2023-05-10T05:23:30.852Z,184.10
2023-05-10T05:24:30.835Z,184.40
2023-05-10T05:25:30.804Z,185.60
2023-05-10T05:26:30.784Z,179.30
2023-05-10T05:27:30.781Z,185.80
2023-05-10T05:28:30.794Z,181.00
2023-05-10T05:29:30.761Z,178.70
2023-05-10T05:30:30.750Z,182.50
2023-05-10T05:31:30.793Z,184.90
2023-05-10T05:32:30.747Z,185.40
2023-05-10T05:33:30.738Z,194.40
2023-05-10T05:34:30.705Z,191.00
2023-05-10T05:35:30.705Z,193.90
2023-05-10T05:36:30.698Z,190.50
2023-05-10T05:37:30.698Z,195.00
2023-05-10T05:38:30.695Z,201.80
2023-05-10T05:39:30.659Z,197.40
2023-05-10T05:40:30.641Z,194.70
2023-05-10T05:41:30.639Z,191.80
2023-05-10T05:42:30.640Z,185.30
2023-05-10T05:43:30.637Z,181.50
2023-05-10T05:44:30.594Z,176.00
2023-05-10T05:45:30.718Z,179.60
2023-05-10T05:46:30.571Z,185.10
2023-05-10T05:47:30.614Z,183.50
2023-05-10T05:48:30.550Z,179.60
2023-05-10T05:49:30.539Z,184.10
2023-05-10T05:50:30.527Z,180.00
2023-05-10T05:51:30.529Z,187.10
2023-05-10T05:52:30.544Z,188.80
2023-05-10T05:53:30.523Z,177.60
2023-05-10T05:54:30.489Z,174.90
2023-05-10T05:55:30.481Z,175.00
2023-05-10T05:56:30.526Z,176.30
2023-05-10T05:57:30.479Z,183.40
2023-05-10T05:58:30.469Z,187.80
2023-05-10T05:59:30.460Z,192.30
2023-05-10T06:00:30.420Z,185.20
2023-05-10T06:01:30.451Z,188.30
2023-05-10T06:02:30.438Z,187.10
2023-05-10T06:03:30.468Z,187.80
2023-05-10T06:04:30.452Z,189.70
2023-05-10T06:05:30.409Z,194.50
2023-05-10T06:06:30.381Z,184.50
2023-05-10T06:07:30.348Z,186.00
2023-05-10T06:08:30.348Z,190.00
2023-05-10T06:09:30.334Z,180.00
2023-05-10T06:10:30.355Z,183.90
2023-05-10T06:11:36.810Z,187.30
2023-05-10T06:12:36.818Z,190.70
2023-05-10T06:13:36.801Z,196.00
2023-05-10T06:14:36.783Z,195.70
2023-05-10T06:15:30.292Z,200.40
2023-05-10T06:16:30.280Z,194.40
2023-05-10T06:17:30.290Z,190.50
2023-05-10T06:18:30.356Z,195.60
2023-05-10T06:19:30.274Z,187.30
2023-05-10T06:20:30.236Z,191.10
2023-05-10T06:21:30.236Z,199.80
2023-05-10T06:22:30.223Z,194.80
2023-05-10T06:23:30.186Z,199.30
2023-05-10T06:24:30.203Z,197.30
2023-05-10T06:25:30.176Z,202.50
2023-05-10T06:26:30.168Z,202.70
2023-05-10T06:27:30.151Z,194.80
2023-05-10T06:28:30.140Z,195.40
2023-05-10T06:29:30.142Z,190.20
2023-05-10T06:30:30.578Z,191.80
2023-05-10T06:31:30.154Z,181.10
2023-05-10T06:32:30.155Z,182.20
2023-05-10T06:33:30.111Z,187.30
2023-05-10T06:34:30.115Z,180.80
2023-05-10T06:35:30.060Z,184.30
2023-05-10T06:36:30.111Z,187.20
2023-05-10T06:37:30.032Z,193.30
2023-05-10T06:38:30.048Z,187.00
2023-05-10T06:39:30.045Z,186.20
2023-05-10T06:40:30.011Z,185.80
2023-05-10T06:41:30.003Z,190.40
2023-05-10T06:42:29.983Z,185.20
2023-05-10T06:43:30.041Z,194.20
2023-05-10T06:44:29.966Z,195.10
2023-05-10T06:45:29.960Z,193.40
2023-05-10T06:46:29.961Z,188.00
2023-05-10T06:47:29.967Z,199.50
2023-05-10T06:48:29.952Z,189.00
2023-05-10T06:49:29.912Z,175.80
2023-05-10T06:50:29.932Z,186.10
2023-05-10T06:51:29.912Z,182.00
2023-05-10T06:52:29.905Z,183.20
2023-05-10T06:53:29.882Z,186.40
2023-05-10T06:54:29.857Z,175.90
2023-05-10T06:55:29.877Z,162.20
2023-05-10T06:56:29.848Z,165.80
2023-05-10T06:57:31.592Z,171.60
2023-05-10T06:58:29.878Z,159.70
2023-05-10T06:59:29.841Z,151.90
2023-05-10T07:00:29.846Z,157.00
2023-05-10T07:01:29.833Z,155.40
2023-05-10T07:02:29.947Z,152.90
2023-05-10T07:03:29.812Z,156.30
2023-05-10T07:04:29.808Z,155.00
2023-05-10T07:05:29.764Z,142.40
2023-05-10T07:06:33.452Z,141.70
2023-05-10T07:07:29.826Z,146.20
2023-05-10T07:08:29.714Z,147.20
2023-05-10T07:09:29.698Z,145.90
2023-05-10T07:10:29.723Z,144.70
2023-05-10T07:11:29.719Z,148.60
2023-05-10T07:12:29.783Z,163.00
2023-05-10T07:13:29.730Z,150.40
2023-05-10T07:14:29.678Z,135.50
2023-05-10T07:15:29.705Z,145.30
2023-05-10T07:16:30.498Z,145.30
2023-05-10T07:17:29.750Z,131.70
2023-05-10T07:18:29.707Z,119.10
2023-05-10T07:19:29.663Z,122.90
2023-05-10T07:20:29.691Z,136.50
2023-05-10T07:21:29.731Z,130.00
2023-05-10T07:22:29.571Z,122.20
2023-05-10T07:23:29.568Z,116.10
2023-05-10T07:24:29.562Z,113.80
2023-05-10T07:25:29.617Z,117.70
2023-05-10T07:26:29.528Z,91.50
2023-05-10T07:27:29.525Z,86.00
2023-05-10T07:28:29.500Z,95.90
2023-05-10T07:29:29.549Z,92.90
2023-05-10T07:30:29.579Z,95.20
2023-05-10T07:31:30.196Z,89.60
2023-05-10T07:32:29.697Z,88.00
2023-05-10T07:33:29.443Z,94.00
2023-05-10T07:34:29.519Z,102.80
2023-05-10T07:35:29.608Z,99.30
2023-05-10T07:36:29.418Z,99.30
2023-05-10T07:37:29.406Z,101.00
2023-05-10T07:38:29.404Z,95.90
2023-05-10T07:39:29.441Z,97.50
2023-05-10T07:40:29.395Z,105.20
2023-05-10T07:41:29.392Z,92.10
2023-05-10T07:42:29.376Z,85.50
2023-05-10T07:43:29.339Z,73.80
2023-05-10T07:44:29.374Z,83.20
2023-05-10T07:45:29.392Z,88.90
2023-05-10T07:46:29.414Z,85.90
2023-05-10T07:47:29.446Z,90.90
2023-05-10T07:48:29.338Z,94.70
2023-05-10T07:49:29.316Z,101.80
2023-05-10T07:50:29.307Z,102.80
2023-05-10T07:51:29.298Z,110.80
2023-05-10T07:52:29.248Z,99.30
2023-05-10T07:53:29.286Z,102.20
2023-05-10T07:54:29.212Z,86.90
2023-05-10T07:55:29.198Z,82.30
2023-05-10T07:56:29.200Z,97.00
2023-05-10T07:57:29.189Z,92.90
2023-05-10T07:58:29.209Z,94.90
2023-05-10T07:59:29.153Z,100.00
2023-05-10T08:00:29.156Z,86.20
2023-05-10T08:01:29.133Z,95.30
2023-05-10T08:02:29.273Z,105.70
2023-05-10T08:03:29.178Z,119.60
2023-05-10T08:04:29.210Z,112.70
2023-05-10T08:05:29.090Z,118.00
2023-05-10T08:06:29.102Z,121.70
2023-05-10T08:07:29.090Z,124.30
2023-05-10T08:08:29.111Z,127.60
2023-05-10T08:09:29.042Z,128.80
2023-05-10T08:10:29.063Z,125.00
2023-05-10T08:11:29.027Z,104.40
2023-05-10T08:12:29.074Z,105.00
2023-05-10T08:13:29.010Z,103.20
2023-05-10T08:14:29.012Z,102.00
2023-05-10T08:15:28.978Z,105.10
2023-05-10T08:16:29.030Z,94.90
2023-05-10T08:17:28.994Z,85.20
2023-05-10T08:18:28.973Z,92.00
2023-05-10T08:19:28.943Z,89.30
2023-05-10T08:20:28.942Z,95.30
2023-05-10T08:21:28.954Z,88.60
2023-05-10T08:22:28.962Z,105.30
2023-05-10T08:23:28.894Z,85.80
2023-05-10T08:24:28.966Z,79.30
2023-05-10T08:25:29.307Z,74.90
2023-05-10T08:26:28.888Z,103.20
2023-05-10T08:27:28.888Z,88.50
2023-05-10T08:28:29.001Z,81.50
2023-05-10T08:29:32.745Z,78.60
2023-05-10T08:30:28.833Z,74.20
2023-05-10T08:31:28.907Z,59.70
2023-05-10T08:32:28.845Z,75.10
2023-05-10T08:33:28.810Z,80.90
2023-05-10T08:34:28.799Z,86.80
2023-05-10T08:35:28.813Z,104.20
2023-05-10T08:36:28.792Z,94.80
2023-05-10T08:37:28.780Z,83.60
2023-05-10T08:38:28.734Z,65.00
2023-05-10T08:39:30.790Z,46.70
2023-05-10T08:40:28.735Z,59.00
2023-05-10T08:41:28.695Z,76.80
2023-05-10T08:42:28.704Z,73.10
2023-05-10T08:43:28.685Z,81.20
2023-05-10T08:44:28.676Z,86.00
2023-05-10T08:45:28.704Z,78.70
2023-05-10T08:46:28.688Z,76.00
2023-05-10T08:47:28.734Z,76.10
2023-05-10T08:48:28.695Z,84.20
2023-05-10T08:49:28.698Z,101.20
2023-05-10T08:50:28.698Z,85.70
2023-05-10T08:51:28.671Z,87.00
2023-05-10T08:52:28.688Z,94.40
2023-05-10T08:53:28.667Z,72.90
2023-05-10T08:54:28.735Z,64.50
2023-05-10T08:55:28.589Z,60.90
2023-05-10T08:56:28.645Z,71.40
2023-05-10T08:57:28.552Z,100.20
2023-05-10T08:58:28.541Z,94.00
2023-05-10T08:59:28.548Z,103.10
2023-05-10T09:00:28.539Z,86.00
2023-05-10T09:01:28.596Z,81.70
2023-05-10T09:02:28.521Z,70.90
2023-05-10T09:03:28.465Z,55.10
2023-05-10T09:04:28.600Z,57.40
2023-05-10T09:05:28.529Z,54.50
2023-05-10T09:06:28.464Z,41.50
2023-05-10T09:07:28.448Z,47.80
2023-05-10T09:08:28.501Z,49.30
2023-05-10T09:09:28.456Z,57.70
2023-05-10T09:10:28.396Z,62.30
2023-05-10T09:11:34.857Z,70.30
2023-05-10T09:12:28.377Z,56.20
2023-05-10T09:13:28.379Z,52.30
2023-05-10T09:14:28.361Z,26.20
2023-05-10T09:15:28.369Z,17.50
2023-05-10T09:16:28.401Z,22.50
2023-05-10T09:17:28.443Z,21.60
2023-05-10T09:18:28.364Z,19.00
2023-05-10T09:19:28.303Z,14.60
2023-05-10T09:20:28.309Z,9.60
2023-05-10T09:21:28.275Z,11.60
2023-05-10T09:22:28.316Z,17.20
2023-05-10T09:23:28.279Z,15.60
2023-05-10T09:24:28.250Z,19.60
2023-05-10T09:25:28.233Z,18.90
2023-05-10T09:26:28.224Z,25.00
2023-05-10T09:27:28.249Z,20.10
2023-05-10T09:28:28.211Z,14.40
2023-05-10T09:29:28.194Z,18.60
2023-05-10T09:30:28.186Z,25.50
2023-05-10T09:31:28.264Z,24.80
2023-05-10T09:32:28.211Z,22.70
2023-05-10T09:33:28.144Z,28.70
2023-05-10T09:34:28.140Z,31.60
2023-05-10T09:35:29.810Z,23.10
2023-05-10T09:36:28.144Z,27.40
2023-05-10T09:37:28.119Z,26.60
2023-05-10T09:38:28.101Z,20.80
2023-05-10T09:39:28.096Z,28.20
2023-05-10T09:40:28.093Z,28.30
2023-05-10T09:41:28.095Z,20.90
2023-05-10T09:42:28.058Z,24.00
2023-05-10T09:43:28.042Z,28.40
2023-05-10T09:44:28.052Z,25.80
2023-05-10T09:45:28.014Z,31.20
2023-05-10T09:46:28.051Z,30.30
2023-05-10T09:47:28.076Z,39.70
2023-05-10T09:48:27.994Z,45.60
2023-05-10T09:49:28.000Z,41.90
2023-05-10T09:50:27.990Z,52.40
2023-05-10T09:51:28.015Z,56.30
2023-05-10T09:52:27.958Z,53.90
2023-05-10T09:53:27.943Z,57.00
2023-05-10T09:54:27.936Z,58.30
2023-05-10T09:55:27.939Z,62.50
2023-05-10T09:56:27.980Z,50.90
2023-05-10T09:57:27.907Z,40.50
2023-05-10T09:58:27.905Z,44.90
2023-05-10T09:59:27.868Z,47.50
2023-05-10T10:00:27.896Z,43.00
2023-05-10T10:01:27.854Z,59.30
2023-05-10T10:02:27.924Z,53.20
2023-05-10T10:03:29.751Z,64.60
2023-05-10T10:04:27.903Z,62.70
2023-05-10T10:05:27.825Z,80.40
2023-05-10T10:06:30.477Z,94.70
2023-05-10T10:07:27.783Z,83.10
2023-05-10T10:08:27.803Z,76.30
2023-05-10T10:09:27.794Z,72.70
2023-05-10T10:10:27.783Z,73.90
2023-05-10T10:11:27.742Z,70.50
2023-05-10T10:12:27.751Z,62.60
2023-05-10T10:13:27.733Z,58.90
2023-05-10T10:14:27.737Z,38.20
2023-05-10T10:15:27.706Z,29.80
2023-05-10T10:16:27.787Z,27.30
2023-05-10T10:17:27.706Z,27.10
2023-05-10T10:18:27.714Z,28.90
2023-05-10T10:19:27.683Z,23.20
2023-05-10T10:20:27.657Z,23.80
2023-05-10T10:21:27.669Z,26.60
2023-05-10T10:22:27.632Z,31.50
2023-05-10T10:23:27.644Z,13.80
2023-05-10T10:24:27.624Z,15.90
2023-05-10T10:25:27.623Z,19.40
2023-05-10T10:26:27.593Z,10.50
2023-05-10T10:27:27.571Z,14.70
2023-05-10T10:28:28.374Z,12.50
2023-05-10T10:29:27.562Z,15.10
2023-05-10T10:30:27.577Z,11.90
2023-05-10T10:31:27.646Z,9.20
2023-05-10T10:32:27.601Z,11.40
2023-05-10T10:33:28.976Z,17.80
2023-05-10T10:34:27.516Z,16.60
2023-05-10T10:35:27.508Z,14.10
2023-05-10T10:36:27.486Z,19.40
2023-05-10T10:37:27.482Z,17.30
2023-05-10T10:38:27.471Z,17.30
2023-05-10T10:39:27.443Z,10.90
2023-05-10T10:40:27.438Z,10.60
2023-05-10T10:41:27.446Z,14.70
2023-05-10T10:42:27.438Z,15.20
2023-05-10T10:43:27.405Z,14.60
2023-05-10T10:44:27.585Z,8.60
2023-05-10T10:45:27.397Z,7.40
2023-05-10T10:46:27.438Z,6.70
2023-05-10T10:47:27.420Z,11.40
2023-05-10T10:48:27.353Z,7.20
2023-05-10T10:49:27.368Z,9.20
2023-05-10T10:50:27.332Z,10.70
2023-05-10T10:51:27.355Z,18.10
2023-05-10T10:52:27.338Z,15.50
2023-05-10T10:53:27.338Z,15.60
2023-05-10T10:54:27.323Z,30.60
2023-05-10T10:55:27.317Z,35.50
2023-05-10T10:56:27.305Z,44.20
2023-05-10T10:57:27.273Z,37.70
2023-05-10T10:58:27.253Z,54.80
2023-05-10T10:59:27.271Z,69.30
2023-05-10T11:00:27.239Z,58.90
2023-05-10T11:01:27.282Z,47.30
2023-05-10T11:02:27.712Z,38.10
2023-05-10T11:03:27.190Z,37.70
2023-05-10T11:04:27.241Z,42.20
2023-05-10T11:05:27.212Z,53.10
2023-05-10T11:06:27.164Z,52.60
2023-05-10T11:07:27.161Z,50.30
2023-05-10T11:08:27.155Z,32.10
2023-05-10T11:09:27.136Z,35.90
2023-05-10T11:10:27.131Z,28.50
2023-05-10T11:11:27.100Z,34.20
2023-05-10T11:12:27.117Z,25.70
2023-05-10T11:13:27.104Z,23.70
2023-05-10T11:14:27.095Z,31.20
2023-05-10T11:15:27.133Z,39.80
2023-05-10T11:16:27.087Z,32.90
2023-05-10T11:17:27.087Z,37.00
2023-05-10T11:18:27.077Z,22.80
2023-05-10T11:19:27.041Z,20.80
2023-05-10T11:20:27.005Z,19.70
2023-05-10T11:21:27.019Z,14.00
2023-05-10T11:22:26.989Z,27.20
2023-05-10T11:23:26.985Z,31.50
2023-05-10T11:24:26.987Z,20.00
2023-05-10T11:25:26.955Z,20.20
2023-05-10T11:26:26.982Z,20.40
2023-05-10T11:27:26.938Z,33.10
2023-05-10T11:28:26.941Z,26.30
2023-05-10T11:29:26.958Z,18.10
2023-05-10T11:30:26.932Z,18.40
2023-05-10T11:31:26.965Z,13.00
2023-05-10T11:32:26.901Z,10.80
2023-05-10T11:33:26.926Z,6.30
2023-05-10T11:34:27.191Z,5.00
2023-05-10T11:35:26.857Z,5.20
2023-05-10T11:36:26.865Z,5.50
2023-05-10T11:37:26.847Z,6.00
2023-05-10T11:38:26.839Z,6.00
2023-05-10T11:39:26.810Z,6.80
2023-05-10T11:40:26.798Z,5.30
2023-05-10T11:41:26.791Z,4.30
2023-05-10T11:42:26.828Z,3.30
2023-05-10T11:43:26.807Z,4.20
2023-05-10T11:44:26.756Z,4.40
2023-05-10T11:45:26.775Z,3.70
2023-05-10T11:46:26.786Z,4.10
2023-05-10T11:47:26.788Z,4.10
2023-05-10T11:48:26.726Z,3.90
2023-05-10T11:49:26.708Z,3.80
2023-05-10T11:50:26.806Z,3.90
2023-05-10T11:51:26.733Z,4.70
2023-05-10T11:52:26.695Z,3.50
2023-05-10T11:53:26.667Z,3.20
2023-05-10T11:54:26.645Z,3.90
2023-05-10T11:55:26.657Z,3.90
2023-05-10T11:56:26.660Z,4.60
2023-05-10T11:57:26.649Z,3.60
2023-05-10T11:58:26.628Z,3.20
2023-05-10T11:59:26.605Z,3.40
2023-05-10T12:00:26.623Z,4.30
2023-05-10T12:01:26.605Z,3.80
2023-05-10T12:02:26.643Z,3.80
2023-05-10T12:03:26.671Z,4.10
2023-05-10T12:04:26.562Z,4.90
2023-05-10T12:05:26.535Z,3.50
2023-05-10T12:06:26.545Z,4.30
2023-05-10T12:07:26.516Z,3.00
2023-05-10T12:08:26.499Z,4.00
2023-05-10T12:09:39.621Z,3.70
2023-05-10T12:10:26.533Z,2.90
2023-05-10T12:11:26.508Z,3.60
2023-05-10T12:12:26.482Z,4.20
2023-05-10T12:13:26.458Z,3.00
2023-05-10T12:14:26.476Z,4.00
2023-05-10T12:15:26.450Z,3.70
2023-05-10T12:16:26.551Z,3.40
2023-05-10T12:17:26.431Z,4.20
2023-05-10T12:18:26.467Z,3.60
2023-05-10T12:19:26.390Z,3.60
2023-05-10T12:20:26.391Z,3.70
2023-05-10T12:21:26.363Z,4.10
2023-05-10T12:22:26.345Z,3.10
2023-05-10T12:23:26.363Z,2.90
2023-05-10T12:24:26.360Z,3.50
2023-05-10T12:25:26.348Z,3.60
2023-05-10T12:26:26.312Z,3.60
2023-05-10T12:27:26.309Z,3.30
2023-05-10T12:28:26.309Z,4.00
2023-05-10T12:29:26.330Z,3.20
2023-05-10T12:30:26.283Z,2.60
2023-05-10T12:31:26.302Z,3.30
2023-05-10T12:32:26.274Z,3.10
2023-05-10T12:33:26.243Z,3.60
2023-05-10T12:34:26.246Z,3.30
2023-05-10T12:35:26.221Z,3.20
2023-05-10T12:36:26.226Z,3.50
2023-05-10T12:37:26.209Z,3.00
2023-05-10T12:38:26.182Z,3.20
2023-05-10T12:39:26.220Z,3.40